Malott, Washington
Current Conditions -  °F | °C
As of 4:53 AM on Sunday 21 Dec 2014 (Local Time) from KOMK Reporting Station
Clear Clear  
Wind Chill: 27°   Ceiling: Unl
Heat Index: 35°   Visibility: 10mi
Dew Point: 33°   Wind: 12mph
Humidity: 92%   Direction: 180°S
Pressure: 29.59"   Gusts: NA
Location:  48.28°N, 119.71°W
Report Text: KOMK 211253Z AUTO 18010KT 10SM CLR 02/01 A2959 RMK AO2 SLP031 T00170006
Loading
Personal Weather Stations






























Interactive Weather Map New forecast layout! Learn more

10-Day Weather Forecast

Advertisements
Track Severe Weather on mobile